sensor_id;sensor_type;location;lat;lon;timestamp;P1;durP1;ratioP1;P2;durP2;ratioP2
44842;SDS011;31884;52.538;13.820;2022-09-09T00:03:57;7.22;;;5.57;;
44842;SDS011;31884;52.538;13.820;2022-09-09T00:11:32;8.52;;;6.80;;
44842;SDS011;31884;52.538;13.820;2022-09-09T00:14:08;7.30;;;6.38;;
44842;SDS011;31884;52.538;13.820;2022-09-09T00:16:56;6.60;;;5.70;;
44842;SDS011;31884;52.538;13.820;2022-09-09T00:19:41;8.57;;;6.47;;
44842;SDS011;31884;52.538;13.820;2022-09-09T00:22:16;6.97;;;5.97;;
44842;SDS011;31884;52.538;13.820;2022-09-09T00:24:45;7.80;;;6.10;;
44842;SDS011;31884;52.538;13.820;2022-09-09T00:27:26;6.93;;;6.03;;
44842;SDS011;31884;52.538;13.820;2022-09-09T00:30:02;7.38;;;5.43;;
44842;SDS011;31884;52.538;13.820;2022-09-09T00:32:59;5.93;;;5.32;;
44842;SDS011;31884;52.538;13.820;2022-09-09T00:35:47;5.05;;;4.50;;
44842;SDS011;31884;52.538;13.820;2022-09-09T00:38:15;6.10;;;4.90;;
44842;SDS011;31884;52.538;13.820;2022-09-09T00:43:31;6.40;;;5.57;;
44842;SDS011;31884;52.538;13.820;2022-09-09T00:48:58;6.25;;;5.38;;
44842;SDS011;31884;52.538;13.820;2022-09-09T00:57:57;8.20;;;5.60;;
44842;SDS011;31884;52.538;13.820;2022-09-09T01:00:24;10.57;;;7.22;;
44842;SDS011;31884;52.538;13.820;2022-09-09T01:11:26;6.60;;;4.93;;
44842;SDS011;31884;52.538;13.820;2022-09-09T01:14:00;8.65;;;5.35;;
44842;SDS011;31884;52.538;13.820;2022-09-09T01:16:34;11.20;;;5.30;;
44842;SDS011;31884;52.538;13.820;2022-09-09T01:19:01;9.73;;;5.68;;
44842;SDS011;31884;52.538;13.820;2022-09-09T01:21:35;6.43;;;4.85;;
44842;SDS011;31884;52.538;13.820;2022-09-09T01:24:24;5.82;;;4.57;;
44842;SDS011;31884;52.538;13.820;2022-09-09T01:26:59;10.65;;;6.15;;
44842;SDS011;31884;52.538;13.820;2022-09-09T01:29:27;7.85;;;4.20;;
44842;SDS011;31884;52.538;13.820;2022-09-09T01:34:21;7.30;;;5.05;;
44842;SDS011;31884;52.538;13.820;2022-09-09T01:39:37;7.30;;;5.00;;
44842;SDS011;31884;52.538;13.820;2022-09-09T01:42:06;7.97;;;5.00;;
44842;SDS011;31884;52.538;13.820;2022-09-09T01:44:35;4.25;;;3.83;;
44842;SDS011;31884;52.538;13.820;2022-09-09T01:47:02;6.72;;;4.75;;
44842;SDS011;31884;52.538;13.820;2022-09-09T01:49:28;7.22;;;5.00;;
44842;SDS011;31884;52.538;13.820;2022-09-09T01:51:54;7.07;;;4.68;;
44842;SDS011;31884;52.538;13.820;2022-09-09T01:54:21;6.15;;;4.63;;
44842;SDS011;31884;52.538;13.820;2022-09-09T02:00:37;5.68;;;4.10;;
44842;SDS011;31884;52.538;13.820;2022-09-09T02:02:38;5.78;;;4.60;;
44842;SDS011;31884;52.538;13.820;2022-09-09T02:05:37;6.68;;;4.35;;
44842;SDS011;31884;52.538;13.820;2022-09-09T02:08:17;5.43;;;3.63;;
44842;SDS011;31884;52.538;13.820;2022-09-09T02:11:05;7.28;;;5.00;;
44842;SDS011;31884;52.538;13.820;2022-09-09T02:16:07;6.22;;;4.38;;
44842;SDS011;31884;52.538;13.820;2022-09-09T02:18:45;5.63;;;3.97;;
44842;SDS011;31884;52.538;13.820;2022-09-09T02:21:13;4.70;;;4.20;;
44842;SDS011;31884;52.538;13.820;2022-09-09T02:23:41;5.65;;;4.25;;
44842;SDS011;31884;52.538;13.820;2022-09-09T02:26:10;6.53;;;4.60;;
44842;SDS011;31884;52.538;13.820;2022-09-09T02:28:38;5.53;;;4.00;;
44842;SDS011;31884;52.538;13.820;2022-09-09T02:31:05;6.63;;;4.55;;
44842;SDS011;31884;52.538;13.820;2022-09-09T02:33:33;8.05;;;4.93;;
44842;SDS011;31884;52.538;13.820;2022-09-09T02:36:03;5.32;;;4.32;;
44842;SDS011;31884;52.538;13.820;2022-09-09T02:38:33;10.50;;;5.00;;
44842;SDS011;31884;52.538;13.820;2022-09-09T02:41:02;6.25;;;4.68;;
44842;SDS011;31884;52.538;13.820;2022-09-09T02:43:32;5.68;;;4.20;;
44842;SDS011;31884;52.538;13.820;2022-09-09T02:48:38;12.68;;;5.25;;
44842;SDS011;31884;52.538;13.820;2022-09-09T02:51:24;8.00;;;4.90;;
44842;SDS011;31884;52.538;13.820;2022-09-09T02:53:58;6.68;;;5.28;;
44842;SDS011;31884;52.538;13.820;2022-09-09T02:56:29;6.57;;;4.82;;
44842;SDS011;31884;52.538;13.820;2022-09-09T02:58:58;13.05;;;5.82;;
44842;SDS011;31884;52.538;13.820;2022-09-09T03:01:24;7.32;;;5.13;;
44842;SDS011;31884;52.538;13.820;2022-09-09T03:03:50;7.35;;;5.10;;
44842;SDS011;31884;52.538;13.820;2022-09-09T03:06:15;8.02;;;5.18;;
44842;SDS011;31884;52.538;13.820;2022-09-09T03:08:41;6.63;;;4.78;;
44842;SDS011;31884;52.538;13.820;2022-09-09T03:11:07;8.65;;;5.00;;
44842;SDS011;31884;52.538;13.820;2022-09-09T03:13:34;5.88;;;4.45;;
44842;SDS011;31884;52.538;13.820;2022-09-09T03:15:59;6.90;;;4.25;;
44842;SDS011;31884;52.538;13.820;2022-09-09T03:18:25;8.38;;;5.70;;
44842;SDS011;31884;52.538;13.820;2022-09-09T03:20:50;8.30;;;5.63;;
44842;SDS011;31884;52.538;13.820;2022-09-09T03:23:16;7.13;;;5.43;;
44842;SDS011;31884;52.538;13.820;2022-09-09T03:25:48;8.15;;;5.70;;
44842;SDS011;31884;52.538;13.820;2022-09-09T03:28:14;9.00;;;4.88;;
44842;SDS011;31884;52.538;13.820;2022-09-09T03:30:40;12.35;;;6.45;;
44842;SDS011;31884;52.538;13.820;2022-09-09T03:33:06;6.57;;;5.32;;
44842;SDS011;31884;52.538;13.820;2022-09-09T03:35:31;9.35;;;5.60;;
44842;SDS011;31884;52.538;13.820;2022-09-09T03:37:57;8.25;;;5.75;;
44842;SDS011;31884;52.538;13.820;2022-09-09T03:40:22;9.65;;;5.00;;
44842;SDS011;31884;52.538;13.820;2022-09-09T03:42:48;11.55;;;6.53;;
44842;SDS011;31884;52.538;13.820;2022-09-09T03:45:13;8.55;;;5.28;;
44842;SDS011;31884;52.538;13.820;2022-09-09T03:47:39;6.68;;;4.90;;
44842;SDS011;31884;52.538;13.820;2022-09-09T03:50:05;7.43;;;5.57;;
44842;SDS011;31884;52.538;13.820;2022-09-09T03:52:36;10.35;;;5.30;;
44842;SDS011;31884;52.538;13.820;2022-09-09T03:55:02;9.80;;;5.10;;
44842;SDS011;31884;52.538;13.820;2022-09-09T03:57:28;14.82;;;6.15;;
44842;SDS011;31884;52.538;13.820;2022-09-09T03:59:54;10.18;;;5.70;;
44842;SDS011;31884;52.538;13.820;2022-09-09T04:02:20;8.00;;;5.53;;
44842;SDS011;31884;52.538;13.820;2022-09-09T04:04:46;6.70;;;5.28;;
44842;SDS011;31884;52.538;13.820;2022-09-09T04:07:12;7.85;;;5.32;;
44842;SDS011;31884;52.538;13.820;2022-09-09T04:09:37;11.10;;;5.53;;
44842;SDS011;31884;52.538;13.820;2022-09-09T04:12:03;8.90;;;4.90;;
44842;SDS011;31884;52.538;13.820;2022-09-09T04:14:29;7.40;;;5.47;;
44842;SDS011;31884;52.538;13.820;2022-09-09T04:16:54;8.50;;;5.43;;
44842;SDS011;31884;52.538;13.820;2022-09-09T04:19:22;7.68;;;5.35;;
44842;SDS011;31884;52.538;13.820;2022-09-09T04:21:47;7.80;;;5.55;;
44842;SDS011;31884;52.538;13.820;2022-09-09T04:24:16;8.57;;;6.25;;
44842;SDS011;31884;52.538;13.820;2022-09-09T04:26:42;11.48;;;6.40;;
44842;SDS011;31884;52.538;13.820;2022-09-09T04:29:08;9.35;;;5.65;;
44842;SDS011;31884;52.538;13.820;2022-09-09T04:31:33;7.60;;;5.25;;
44842;SDS011;31884;52.538;13.820;2022-09-09T04:33:59;8.88;;;5.82;;
44842;SDS011;31884;52.538;13.820;2022-09-09T04:36:29;7.28;;;5.07;;
44842;SDS011;31884;52.538;13.820;2022-09-09T04:38:56;7.95;;;5.57;;
44842;SDS011;31884;52.538;13.820;2022-09-09T04:41:22;7.28;;;5.40;;
44842;SDS011;31884;52.538;13.820;2022-09-09T04:43:48;7.75;;;5.80;;
44842;SDS011;31884;52.538;13.820;2022-09-09T04:46:14;13.35;;;6.95;;
44842;SDS011;31884;52.538;13.820;2022-09-09T04:48:41;8.65;;;5.90;;
44842;SDS011;31884;52.538;13.820;2022-09-09T04:51:08;7.63;;;5.30;;
44842;SDS011;31884;52.538;13.820;2022-09-09T04:53:36;8.07;;;5.85;;
44842;SDS011;31884;52.538;13.820;2022-09-09T04:56:03;8.75;;;6.47;;
44842;SDS011;31884;52.538;13.820;2022-09-09T04:58:31;9.32;;;5.63;;
44842;SDS011;31884;52.538;13.820;2022-09-09T05:01:06;9.90;;;5.93;;
44842;SDS011;31884;52.538;13.820;2022-09-09T05:03:33;8.65;;;5.28;;
44842;SDS011;31884;52.538;13.820;2022-09-09T05:06:03;10.90;;;6.07;;
44842;SDS011;31884;52.538;13.820;2022-09-09T05:08:29;6.63;;;5.53;;
44842;SDS011;31884;52.538;13.820;2022-09-09T05:10:54;8.95;;;5.85;;
44842;SDS011;31884;52.538;13.820;2022-09-09T05:13:20;8.10;;;5.40;;
44842;SDS011;31884;52.538;13.820;2022-09-09T05:15:52;7.90;;;6.03;;
44842;SDS011;31884;52.538;13.820;2022-09-09T05:18:18;10.15;;;5.72;;
44842;SDS011;31884;52.538;13.820;2022-09-09T05:20:44;7.95;;;5.60;;
44842;SDS011;31884;52.538;13.820;2022-09-09T05:23:09;9.98;;;5.50;;
44842;SDS011;31884;52.538;13.820;2022-09-09T05:25:38;10.85;;;6.13;;
44842;SDS011;31884;52.538;13.820;2022-09-09T05:28:05;9.15;;;6.28;;
44842;SDS011;31884;52.538;13.820;2022-09-09T05:30:32;7.82;;;5.68;;
44842;SDS011;31884;52.538;13.820;2022-09-09T05:32:58;5.15;;;4.57;;
44842;SDS011;31884;52.538;13.820;2022-09-09T05:35:24;11.02;;;4.30;;
44842;SDS011;31884;52.538;13.820;2022-09-09T05:37:49;6.22;;;4.53;;
44842;SDS011;31884;52.538;13.820;2022-09-09T05:40:15;3.47;;;3.17;;
44842;SDS011;31884;52.538;13.820;2022-09-09T05:42:41;4.82;;;2.65;;
44842;SDS011;31884;52.538;13.820;2022-09-09T05:45:09;4.28;;;2.70;;
44842;SDS011;31884;52.538;13.820;2022-09-09T05:47:35;3.40;;;2.97;;
44842;SDS011;31884;52.538;13.820;2022-09-09T05:50:02;2.95;;;2.65;;
44842;SDS011;31884;52.538;13.820;2022-09-09T05:52:28;5.53;;;2.92;;
44842;SDS011;31884;52.538;13.820;2022-09-09T05:54:54;3.08;;;2.50;;
44842;SDS011;31884;52.538;13.820;2022-09-09T05:57:20;4.90;;;2.80;;
44842;SDS011;31884;52.538;13.820;2022-09-09T05:59:45;2.25;;;2.05;;
44842;SDS011;31884;52.538;13.820;2022-09-09T06:02:11;2.53;;;2.17;;
44842;SDS011;31884;52.538;13.820;2022-09-09T06:04:38;2.47;;;1.98;;
44842;SDS011;31884;52.538;13.820;2022-09-09T06:07:04;2.33;;;2.10;;
44842;SDS011;31884;52.538;13.820;2022-09-09T06:09:30;3.08;;;1.90;;
44842;SDS011;31884;52.538;13.820;2022-09-09T06:11:55;2.42;;;2.13;;
44842;SDS011;31884;52.538;13.820;2022-09-09T06:14:22;2.03;;;1.80;;
44842;SDS011;31884;52.538;13.820;2022-09-09T06:16:48;1.88;;;1.70;;
44842;SDS011;31884;52.538;13.820;2022-09-09T06:19:13;2.20;;;1.80;;
44842;SDS011;31884;52.538;13.820;2022-09-09T06:21:39;1.80;;;1.70;;
44842;SDS011;31884;52.538;13.820;2022-09-09T06:24:05;3.75;;;1.77;;
44842;SDS011;31884;52.538;13.820;2022-09-09T06:26:32;2.13;;;1.70;;
44842;SDS011;31884;52.538;13.820;2022-09-09T06:29:05;5.28;;;1.80;;
44842;SDS011;31884;52.538;13.820;2022-09-09T06:31:33;2.25;;;1.83;;
44842;SDS011;31884;52.538;13.820;2022-09-09T06:34:00;2.90;;;1.88;;
44842;SDS011;31884;52.538;13.820;2022-09-09T06:36:29;1.70;;;1.52;;
44842;SDS011;31884;52.538;13.820;2022-09-09T06:38:57;2.05;;;1.60;;
44842;SDS011;31884;52.538;13.820;2022-09-09T06:41:23;1.95;;;1.40;;
44842;SDS011;31884;52.538;13.820;2022-09-09T06:43:53;1.80;;;1.50;;
44842;SDS011;31884;52.538;13.820;2022-09-09T06:46:24;1.98;;;1.60;;
44842;SDS011;31884;52.538;13.820;2022-09-09T06:51:22;1.40;;;1.30;;
44842;SDS011;31884;52.538;13.820;2022-09-09T06:53:55;1.45;;;1.00;;
44842;SDS011;31884;52.538;13.820;2022-09-09T06:56:24;2.55;;;1.50;;
44842;SDS011;31884;52.538;13.820;2022-09-09T06:58:52;1.70;;;1.08;;
44842;SDS011;31884;52.538;13.820;2022-09-09T07:01:20;2.65;;;1.00;;
44842;SDS011;31884;52.538;13.820;2022-09-09T07:03:48;3.47;;;1.15;;
44842;SDS011;31884;52.538;13.820;2022-09-09T07:06:16;2.60;;;1.08;;
44842;SDS011;31884;52.538;13.820;2022-09-09T07:08:44;1.75;;;0.80;;
44842;SDS011;31884;52.538;13.820;2022-09-09T07:11:14;1.88;;;1.10;;
44842;SDS011;31884;52.538;13.820;2022-09-09T07:13:39;2.63;;;1.10;;
44842;SDS011;31884;52.538;13.820;2022-09-09T07:16:06;4.72;;;1.65;;
44842;SDS011;31884;52.538;13.820;2022-09-09T07:18:33;3.13;;;1.10;;
44842;SDS011;31884;52.538;13.820;2022-09-09T07:20:59;2.47;;;0.85;;
44842;SDS011;31884;52.538;13.820;2022-09-09T07:23:27;2.28;;;0.98;;
44842;SDS011;31884;52.538;13.820;2022-09-09T07:25:53;4.63;;;1.10;;
44842;SDS011;31884;52.538;13.820;2022-09-09T07:28:19;1.33;;;0.90;;
44842;SDS011;31884;52.538;13.820;2022-09-09T07:30:58;2.50;;;0.90;;
44842;SDS011;31884;52.538;13.820;2022-09-09T07:33:27;2.47;;;1.08;;
44842;SDS011;31884;52.538;13.820;2022-09-09T07:36:01;2.53;;;0.90;;
44842;SDS011;31884;52.538;13.820;2022-09-09T07:38:29;2.30;;;0.90;;
44842;SDS011;31884;52.538;13.820;2022-09-09T07:41:02;2.25;;;0.90;;
44842;SDS011;31884;52.538;13.820;2022-09-09T07:43:37;1.35;;;0.80;;
44842;SDS011;31884;52.538;13.820;2022-09-09T07:46:06;3.83;;;1.10;;
44842;SDS011;31884;52.538;13.820;2022-09-09T07:48:33;0.80;;;0.80;;
44842;SDS011;31884;52.538;13.820;2022-09-09T07:51:03;1.70;;;0.80;;
44842;SDS011;31884;52.538;13.820;2022-09-09T07:53:30;3.60;;;1.00;;
44842;SDS011;31884;52.538;13.820;2022-09-09T07:56:01;2.17;;;0.90;;
44842;SDS011;31884;52.538;13.820;2022-09-09T07:58:28;1.20;;;0.90;;
44842;SDS011;31884;52.538;13.820;2022-09-09T08:00:53;4.05;;;1.15;;
44842;SDS011;31884;52.538;13.820;2022-09-09T08:03:19;1.67;;;0.90;;
44842;SDS011;31884;52.538;13.820;2022-09-09T08:05:46;2.47;;;0.90;;
44842;SDS011;31884;52.538;13.820;2022-09-09T08:08:12;1.33;;;0.77;;
44842;SDS011;31884;52.538;13.820;2022-09-09T08:10:37;1.90;;;0.90;;
44842;SDS011;31884;52.538;13.820;2022-09-09T08:13:03;1.60;;;0.70;;
44842;SDS011;31884;52.538;13.820;2022-09-09T08:15:29;2.67;;;0.98;;
44842;SDS011;31884;52.538;13.820;2022-09-09T08:17:56;1.70;;;0.90;;
44842;SDS011;31884;52.538;13.820;2022-09-09T08:20:21;2.28;;;1.13;;
44842;SDS011;31884;52.538;13.820;2022-09-09T08:22:48;2.78;;;0.90;;
44842;SDS011;31884;52.538;13.820;2022-09-09T08:25:14;2.20;;;1.30;;
44842;SDS011;31884;52.538;13.820;2022-09-09T08:27:40;1.52;;;0.70;;
44842;SDS011;31884;52.538;13.820;2022-09-09T08:30:06;5.15;;;1.20;;
44842;SDS011;31884;52.538;13.820;2022-09-09T08:32:32;0.88;;;0.85;;
44842;SDS011;31884;52.538;13.820;2022-09-09T08:34:57;2.13;;;1.13;;
44842;SDS011;31884;52.538;13.820;2022-09-09T08:37:23;0.90;;;0.90;;
44842;SDS011;31884;52.538;13.820;2022-09-09T08:39:48;3.30;;;1.05;;
44842;SDS011;31884;52.538;13.820;2022-09-09T08:48:06;1.83;;;0.90;;
44842;SDS011;31884;52.538;13.820;2022-09-09T08:50:39;2.78;;;1.10;;
44842;SDS011;31884;52.538;13.820;2022-09-09T08:58:20;1.38;;;1.20;;
44842;SDS011;31884;52.538;13.820;2022-09-09T09:00:51;3.05;;;1.23;;
44842;SDS011;31884;52.538;13.820;2022-09-09T09:09:04;3.13;;;1.30;;
44842;SDS011;31884;52.538;13.820;2022-09-09T09:11:35;2.65;;;1.25;;
44842;SDS011;31884;52.538;13.820;2022-09-09T09:14:26;5.70;;;1.30;;
44842;SDS011;31884;52.538;13.820;2022-09-09T09:16:59;3.00;;;1.13;;
44842;SDS011;31884;52.538;13.820;2022-09-09T09:19:28;1.58;;;0.88;;
44842;SDS011;31884;52.538;13.820;2022-09-09T09:21:58;3.25;;;1.23;;
44842;SDS011;31884;52.538;13.820;2022-09-09T09:27:19;2.95;;;0.90;;
44842;SDS011;31884;52.538;13.820;2022-09-09T09:29:53;2.20;;;0.88;;
44842;SDS011;31884;52.538;13.820;2022-09-09T09:32:22;2.67;;;0.77;;
44842;SDS011;31884;52.538;13.820;2022-09-09T09:34:51;0.85;;;0.68;;
44842;SDS011;31884;52.538;13.820;2022-09-09T09:37:31;1.33;;;0.70;;
44842;SDS011;31884;52.538;13.820;2022-09-09T09:42:57;1.23;;;0.80;;
44842;SDS011;31884;52.538;13.820;2022-09-09T09:48:19;1.77;;;0.88;;
44842;SDS011;31884;52.538;13.820;2022-09-09T09:50:57;1.98;;;0.93;;
44842;SDS011;31884;52.538;13.820;2022-09-09T09:53:26;2.65;;;0.93;;
44842;SDS011;31884;52.538;13.820;2022-09-09T09:55:55;3.17;;;1.20;;
44842;SDS011;31884;52.538;13.820;2022-09-09T10:01:23;4.25;;;1.48;;
44842;SDS011;31884;52.538;13.820;2022-09-09T10:03:57;2.90;;;1.20;;
44842;SDS011;31884;52.538;13.820;2022-09-09T10:06:34;5.63;;;1.70;;
44842;SDS011;31884;52.538;13.820;2022-09-09T10:09:03;1.10;;;0.90;;
44842;SDS011;31884;52.538;13.820;2022-09-09T10:11:50;1.80;;;0.88;;
44842;SDS011;31884;52.538;13.820;2022-09-09T10:14:50;5.00;;;1.10;;
44842;SDS011;31884;52.538;13.820;2022-09-09T10:17:29;1.77;;;0.98;;
44842;SDS011;31884;52.538;13.820;2022-09-09T10:20:30;3.17;;;1.05;;
44842;SDS011;31884;52.538;13.820;2022-09-09T10:23:12;1.02;;;0.80;;
44842;SDS011;31884;52.538;13.820;2022-09-09T10:25:57;1.38;;;0.90;;
44842;SDS011;31884;52.538;13.820;2022-09-09T10:28:54;3.33;;;0.95;;
44842;SDS011;31884;52.538;13.820;2022-09-09T10:40:20;1.98;;;0.90;;
44842;SDS011;31884;52.538;13.820;2022-09-09T10:46:10;2.72;;;1.15;;
44842;SDS011;31884;52.538;13.820;2022-09-09T10:51:28;4.70;;;0.90;;
44842;SDS011;31884;52.538;13.820;2022-09-09T10:54:24;2.73;;;1.07;;
44842;SDS011;31884;52.538;13.820;2022-09-09T10:56:55;1.45;;;0.80;;
44842;SDS011;31884;52.538;13.820;2022-09-09T10:59:45;2.22;;;1.20;;
44842;SDS011;31884;52.538;13.820;2022-09-09T11:02:36;3.22;;;1.70;;
44842;SDS011;31884;52.538;13.820;2022-09-09T11:07:33;4.43;;;1.40;;
44842;SDS011;31884;52.538;13.820;2022-09-09T11:10:43;1.35;;;0.93;;
44842;SDS011;31884;52.538;13.820;2022-09-09T11:13:14;3.15;;;1.27;;
44842;SDS011;31884;52.538;13.820;2022-09-09T11:15:45;1.92;;;1.13;;
44842;SDS011;31884;52.538;13.820;2022-09-09T11:18:19;2.53;;;1.38;;
44842;SDS011;31884;52.538;13.820;2022-09-09T11:20:47;4.03;;;1.10;;
44842;SDS011;31884;52.538;13.820;2022-09-09T11:23:17;3.70;;;1.10;;
44842;SDS011;31884;52.538;13.820;2022-09-09T11:25:53;0.95;;;0.73;;
44842;SDS011;31884;52.538;13.820;2022-09-09T11:28:28;2.90;;;0.80;;
44842;SDS011;31884;52.538;13.820;2022-09-09T11:34:03;4.43;;;0.82;;
44842;SDS011;31884;52.538;13.820;2022-09-09T11:41:53;4.32;;;1.23;;
44842;SDS011;31884;52.538;13.820;2022-09-09T11:44:29;3.15;;;1.00;;
44842;SDS011;31884;52.538;13.820;2022-09-09T11:46:55;2.95;;;0.93;;
44842;SDS011;31884;52.538;13.820;2022-09-09T11:51:54;2.47;;;1.10;;
44842;SDS011;31884;52.538;13.820;2022-09-09T11:54:33;1.30;;;0.90;;
44842;SDS011;31884;52.538;13.820;2022-09-09T11:57:20;2.78;;;0.73;;
44842;SDS011;31884;52.538;13.820;2022-09-09T11:59:51;2.22;;;1.17;;
44842;SDS011;31884;52.538;13.820;2022-09-09T12:02:24;2.35;;;0.85;;
44842;SDS011;31884;52.538;13.820;2022-09-09T12:07:49;4.03;;;1.17;;
44842;SDS011;31884;52.538;13.820;2022-09-09T12:10:23;1.00;;;0.90;;
44842;SDS011;31884;52.538;13.820;2022-09-09T12:12:52;2.08;;;1.23;;
44842;SDS011;31884;52.538;13.820;2022-09-09T12:15:22;2.45;;;0.70;;
44842;SDS011;31884;52.538;13.820;2022-09-09T12:17:53;1.85;;;1.15;;
44842;SDS011;31884;52.538;13.820;2022-09-09T12:20:22;3.13;;;1.05;;
44842;SDS011;31884;52.538;13.820;2022-09-09T12:25:29;2.03;;;1.02;;
44842;SDS011;31884;52.538;13.820;2022-09-09T12:31:21;1.35;;;0.80;;
44842;SDS011;31884;52.538;13.820;2022-09-09T12:33:51;1.23;;;0.70;;
44842;SDS011;31884;52.538;13.820;2022-09-09T12:36:52;0.90;;;0.80;;
44842;SDS011;31884;52.538;13.820;2022-09-09T12:39:56;1.33;;;0.82;;
44842;SDS011;31884;52.538;13.820;2022-09-09T12:41:59;1.05;;;0.50;;
44842;SDS011;31884;52.538;13.820;2022-09-09T12:44:25;1.60;;;0.77;;
44842;SDS011;31884;52.538;13.820;2022-09-09T12:46:53;3.60;;;0.85;;
44842;SDS011;31884;52.538;13.820;2022-09-09T12:49:32;3.20;;;1.05;;
44842;SDS011;31884;52.538;13.820;2022-09-09T12:52:02;1.15;;;0.68;;
44842;SDS011;31884;52.538;13.820;2022-09-09T12:54:30;2.00;;;0.70;;
44842;SDS011;31884;52.538;13.820;2022-09-09T12:56:56;0.85;;;0.68;;
44842;SDS011;31884;52.538;13.820;2022-09-09T12:59:24;1.15;;;0.70;;
44842;SDS011;31884;52.538;13.820;2022-09-09T13:01:57;3.83;;;1.20;;
44842;SDS011;31884;52.538;13.820;2022-09-09T13:04:23;3.03;;;0.80;;
44842;SDS011;31884;52.538;13.820;2022-09-09T13:06:49;3.38;;;0.80;;
44842;SDS011;31884;52.538;13.820;2022-09-09T13:09:17;3.25;;;0.88;;
44842;SDS011;31884;52.538;13.820;2022-09-09T13:11:43;1.55;;;0.63;;
44842;SDS011;31884;52.538;13.820;2022-09-09T13:14:18;2.00;;;0.70;;
44842;SDS011;31884;52.538;13.820;2022-09-09T13:16:57;2.92;;;0.88;;
44842;SDS011;31884;52.538;13.820;2022-09-09T13:19:24;3.88;;;0.60;;
44842;SDS011;31884;52.538;13.820;2022-09-09T13:21:52;1.25;;;0.70;;
44842;SDS011;31884;52.538;13.820;2022-09-09T13:27:00;1.75;;;0.70;;
44842;SDS011;31884;52.538;13.820;2022-09-09T13:29:28;0.77;;;0.60;;
44842;SDS011;31884;52.538;13.820;2022-09-09T13:32:05;1.17;;;0.60;;
44842;SDS011;31884;52.538;13.820;2022-09-09T13:34:33;2.50;;;0.95;;
44842;SDS011;31884;52.538;13.820;2022-09-09T13:37:03;2.72;;;0.88;;
44842;SDS011;31884;52.538;13.820;2022-09-09T13:39:32;1.30;;;0.70;;
44842;SDS011;31884;52.538;13.820;2022-09-09T13:42:00;2.17;;;0.80;;
44842;SDS011;31884;52.538;13.820;2022-09-09T13:44:30;0.93;;;0.73;;
44842;SDS011;31884;52.538;13.820;2022-09-09T13:47:16;1.25;;;0.93;;
44842;SDS011;31884;52.538;13.820;2022-09-09T13:49:46;1.63;;;0.63;;
44842;SDS011;31884;52.538;13.820;2022-09-09T13:52:13;1.38;;;0.80;;
44842;SDS011;31884;52.538;13.820;2022-09-09T13:54:40;2.47;;;0.93;;
44842;SDS011;31884;52.538;13.820;2022-09-09T13:57:13;2.63;;;0.80;;
44842;SDS011;31884;52.538;13.820;2022-09-09T13:59:50;1.10;;;0.50;;
44842;SDS011;31884;52.538;13.820;2022-09-09T14:02:16;1.42;;;0.70;;
44842;SDS011;31884;52.538;13.820;2022-09-09T14:04:42;1.67;;;0.82;;
44842;SDS011;31884;52.538;13.820;2022-09-09T14:07:10;1.63;;;0.65;;
44842;SDS011;31884;52.538;13.820;2022-09-09T14:09:38;1.58;;;0.75;;
44842;SDS011;31884;52.538;13.820;2022-09-09T14:12:04;4.05;;;1.00;;
44842;SDS011;31884;52.538;13.820;2022-09-09T14:14:30;3.00;;;0.82;;
44842;SDS011;31884;52.538;13.820;2022-09-09T14:16:55;2.28;;;0.70;;
44842;SDS011;31884;52.538;13.820;2022-09-09T14:19:21;0.95;;;0.55;;
44842;SDS011;31884;52.538;13.820;2022-09-09T14:21:47;2.88;;;0.93;;
44842;SDS011;31884;52.538;13.820;2022-09-09T14:24:13;1.67;;;0.80;;
44842;SDS011;31884;52.538;13.820;2022-09-09T14:26:39;2.55;;;0.75;;
44842;SDS011;31884;52.538;13.820;2022-09-09T14:29:04;1.88;;;0.70;;
44842;SDS011;31884;52.538;13.820;2022-09-09T14:31:30;3.70;;;0.95;;
44842;SDS011;31884;52.538;13.820;2022-09-09T14:33:55;0.90;;;0.63;;
44842;SDS011;31884;52.538;13.820;2022-09-09T14:36:21;1.45;;;0.80;;
44842;SDS011;31884;52.538;13.820;2022-09-09T14:38:46;3.28;;;0.80;;
44842;SDS011;31884;52.538;13.820;2022-09-09T14:41:14;1.98;;;0.60;;
44842;SDS011;31884;52.538;13.820;2022-09-09T14:43:45;0.90;;;0.60;;
44842;SDS011;31884;52.538;13.820;2022-09-09T14:46:15;1.50;;;0.80;;
44842;SDS011;31884;52.538;13.820;2022-09-09T14:48:42;2.75;;;0.95;;
44842;SDS011;31884;52.538;13.820;2022-09-09T14:51:09;1.27;;;0.70;;
44842;SDS011;31884;52.538;13.820;2022-09-09T14:53:37;1.15;;;0.70;;
44842;SDS011;31884;52.538;13.820;2022-09-09T14:56:11;4.68;;;0.98;;
44842;SDS011;31884;52.538;13.820;2022-09-09T14:58:48;2.65;;;0.90;;
44842;SDS011;31884;52.538;13.820;2022-09-09T15:01:15;1.80;;;0.85;;
44842;SDS011;31884;52.538;13.820;2022-09-09T15:03:44;2.13;;;0.85;;
44842;SDS011;31884;52.538;13.820;2022-09-09T15:06:14;2.33;;;1.15;;
44842;SDS011;31884;52.538;13.820;2022-09-09T15:08:41;1.20;;;0.77;;
44842;SDS011;31884;52.538;13.820;2022-09-09T15:11:08;1.92;;;0.80;;
44842;SDS011;31884;52.538;13.820;2022-09-09T15:13:36;3.72;;;0.90;;
44842;SDS011;31884;52.538;13.820;2022-09-09T15:16:03;5.00;;;1.55;;
44842;SDS011;31884;52.538;13.820;2022-09-09T15:18:30;2.10;;;0.80;;
44842;SDS011;31884;52.538;13.820;2022-09-09T15:20:57;3.65;;;1.10;;
44842;SDS011;31884;52.538;13.820;2022-09-09T15:23:23;2.55;;;0.93;;
44842;SDS011;31884;52.538;13.820;2022-09-09T15:25:52;4.68;;;1.02;;
44842;SDS011;31884;52.538;13.820;2022-09-09T15:28:18;2.28;;;0.80;;
44842;SDS011;31884;52.538;13.820;2022-09-09T15:30:46;1.85;;;0.80;;
44842;SDS011;31884;52.538;13.820;2022-09-09T15:33:12;3.20;;;0.80;;
44842;SDS011;31884;52.538;13.820;2022-09-09T15:35:38;1.58;;;0.80;;
44842;SDS011;31884;52.538;13.820;2022-09-09T15:38:03;0.82;;;0.60;;
44842;SDS011;31884;52.538;13.820;2022-09-09T15:40:32;1.58;;;0.65;;
44842;SDS011;31884;52.538;13.820;2022-09-09T15:42:58;1.92;;;0.70;;
44842;SDS011;31884;52.538;13.820;2022-09-09T15:45:23;4.03;;;0.93;;
44842;SDS011;31884;52.538;13.820;2022-09-09T15:47:49;2.67;;;0.70;;
44842;SDS011;31884;52.538;13.820;2022-09-09T15:50:14;2.45;;;0.70;;
44842;SDS011;31884;52.538;13.820;2022-09-09T15:52:40;2.40;;;0.77;;
44842;SDS011;31884;52.538;13.820;2022-09-09T15:55:06;1.17;;;0.57;;
44842;SDS011;31884;52.538;13.820;2022-09-09T15:57:33;1.63;;;0.65;;
44842;SDS011;31884;52.538;13.820;2022-09-09T15:59:59;1.38;;;0.68;;
44842;SDS011;31884;52.538;13.820;2022-09-09T16:02:25;0.77;;;0.50;;
44842;SDS011;31884;52.538;13.820;2022-09-09T16:04:51;2.47;;;0.80;;
44842;SDS011;31884;52.538;13.820;2022-09-09T16:07:17;1.38;;;0.75;;
44842;SDS011;31884;52.538;13.820;2022-09-09T16:09:42;2.03;;;0.50;;
44842;SDS011;31884;52.538;13.820;2022-09-09T16:12:08;2.55;;;0.90;;
44842;SDS011;31884;52.538;13.820;2022-09-09T16:14:37;1.35;;;0.90;;
44842;SDS011;31884;52.538;13.820;2022-09-09T16:17:04;1.70;;;0.63;;
44842;SDS011;31884;52.538;13.820;2022-09-09T16:19:30;2.60;;;0.60;;
44842;SDS011;31884;52.538;13.820;2022-09-09T16:21:56;8.70;;;1.13;;
44842;SDS011;31884;52.538;13.820;2022-09-09T16:24:22;4.72;;;1.00;;
44842;SDS011;31884;52.538;13.820;2022-09-09T16:26:50;3.13;;;0.90;;
44842;SDS011;31884;52.538;13.820;2022-09-09T16:29:17;1.33;;;0.65;;
44842;SDS011;31884;52.538;13.820;2022-09-09T16:31:46;1.63;;;0.90;;
44842;SDS011;31884;52.538;13.820;2022-09-09T16:34:13;4.07;;;0.90;;
44842;SDS011;31884;52.538;13.820;2022-09-09T16:36:39;3.60;;;0.90;;
44842;SDS011;31884;52.538;13.820;2022-09-09T16:39:07;2.30;;;1.00;;
44842;SDS011;31884;52.538;13.820;2022-09-09T16:41:35;3.88;;;0.93;;